Time;durP1;ratioP1;P1;durP2;ratioP2;P2;SDS_P1;SDS_P2;PMS_P1;PMS_P2;Temp;Humidity;BMP_temperature;BMP_pressure;BME280_temperature;BME280_humidity;BME280_pressure;Samples;Min_cycle;Max_cycle;Signal;HPM_P1;HPM_P2
2022/03/04 00:01:38;;;;;;;24.10;14.53;;;;;;;2.11;100.00;148198.02;1660788;84;21083;-64
2022/03/04 00:04:09;;;;;;;23.05;13.48;;;;;;;2.09;100.00;148192.81;1661293;84;22106;-64
2022/03/04 00:06:36;;;;;;;23.00;13.45;;;;;;;2.06;100.00;148185.09;1661090;84;21694;-63
2022/03/04 00:09:03;;;;;;;22.95;13.10;;;;;;;2.06;100.00;148185.09;1695507;83;21681;-63
2022/03/04 00:11:30;;;;;;;24.55;13.83;;;;;;;2.04;100.00;148179.94;1704852;83;21512;-64
2022/03/04 00:13:57;;;;;;;21.73;13.15;;;;;;;2.02;100.00;148174.78;1687345;83;21583;-64
2022/03/04 00:16:24;;;;;;;24.55;14.20;;;;;;;1.99;100.00;148168.38;1687995;84;21031;-63
2022/03/04 00:19:06;;;;;;;26.30;14.55;;;;;;;1.96;100.00;148161.91;1687874;84;21089;-63
2022/03/04 00:21:21;;;;;;;24.82;14.60;;;;;;;1.92;100.00;148151.59;1685479;83;21490;-63
2022/03/04 00:23:48;;;;;;;25.32;15.25;;;;;;;1.88;100.00;148141.30;1687624;84;21069;-63
2022/03/04 00:26:15;;;;;;;25.45;14.68;;;;;;;1.84;100.00;148132.27;1688303;84;21082;-63
2022/03/04 00:28:43;;;;;;;24.02;14.45;;;;;;;1.80;100.00;148120.64;1688044;84;21539;-64
2022/03/04 00:31:10;;;;;;;24.60;14.70;;;;;;;1.75;100.00;148107.77;1690204;84;21092;-63
2022/03/04 00:33:37;;;;;;;21.30;12.78;;;;;;;1.66;100.00;148087.17;1690350;84;21092;-64
2022/03/04 00:36:04;;;;;;;24.40;13.53;;;;;;;1.59;100.00;148069.09;1684924;83;21067;-64
2022/03/04 00:38:31;;;;;;;25.48;14.07;;;;;;;1.52;100.00;148051.06;1655933;85;21013;-64
2022/03/04 00:40:58;;;;;;;22.32;12.82;;;;;;;1.45;100.00;148034.31;1684780;85;21112;-64
2022/03/04 00:43:25;;;;;;;25.55;13.80;;;;;;;1.39;100.00;148020.13;1685538;85;21344;-64
2022/03/04 00:45:52;;;;;;;24.25;13.40;;;;;;;1.33;100.00;148003.41;1684752;85;22227;-64
2022/03/04 00:48:20;;;;;;;23.90;12.98;;;;;;;1.26;100.00;147987.91;1685418;83;20969;-59
2022/03/04 00:50:47;;;;;;;22.17;13.38;;;;;;;1.25;100.00;147984.08;1684589;84;21037;-58
2022/03/04 00:53:14;;;;;;;21.70;12.55;;;;;;;1.21;100.00;147973.73;1685209;85;21076;-63
2022/03/04 00:55:41;;;;;;;23.92;12.95;;;;;;;1.16;100.00;147960.86;1684710;85;21707;-57
2022/03/04 00:58:09;;;;;;;23.18;12.45;;;;;;;1.11;100.00;147950.56;1685024;85;21199;-59
2022/03/04 01:00:37;;;;;;;24.50;13.35;;;;;;;1.10;100.00;147946.69;1685521;83;21064;-58
2022/03/04 01:03:04;;;;;;;23.47;13.35;;;;;;;1.06;100.00;147417.22;1685222;85;21064;-63
2022/03/04 01:05:32;;;;;;;19.12;11.83;;;;;;;1.05;100.00;144983.22;1685173;84;21033;-64
2022/03/04 01:07:59;;;;;;;21.82;12.68;;;;;;;1.03;100.00;141256.86;1690312;84;21046;-64
2022/03/04 01:10:26;;;;;;;20.90;13.08;;;;;;;1.01;100.00;137494.47;1702528;83;21456;-64
2022/03/04 01:12:53;;;;;;;19.27;11.22;;;;;;;0.98;100.00;134585.64;1688913;84;21124;-63
2022/03/04 01:15:21;;;;;;;19.75;11.03;;;;;;;0.96;100.00;131512.52;1690586;84;21538;-64
2022/03/04 01:17:48;;;;;;;18.52;11.18;;;;;;;0.94;100.00;128269.63;1690311;84;21088;-63
2022/03/04 01:20:15;;;;;;;19.73;12.03;;;;;;;0.92;100.00;125031.11;1690830;84;21063;-63
2022/03/04 01:22:42;;;;;;;19.60;11.38;;;;;;;0.88;100.00;121451.59;1689997;84;21597;-63
2022/03/04 01:25:10;;;;;;;21.50;11.80;;;;;;;0.87;100.00;117543.81;1689937;84;21942;-63
2022/03/04 01:27:37;;;;;;;20.45;11.90;;;;;;;0.89;100.00;112457.62;1689872;84;21587;-64
2022/03/04 01:30:07;;;;;;;19.75;11.80;;;;;;;0.90;100.00;108901.41;1691678;84;21104;-63
2022/03/04 01:32:34;;;;;;;20.27;11.90;;;;;;;0.87;100.00;107880.72;1692583;83;21509;-63
2022/03/04 01:35:01;;;;;;;20.17;11.80;;;;;;;0.84;100.00;106014.36;1692015;84;21598;-58
2022/03/04 01:37:28;;;;;;;20.15;12.03;;;;;;;0.83;100.00;104151.87;1692486;84;20957;-63
2022/03/04 01:39:55;;;;;;;19.70;11.70;;;;;;;0.87;100.00;104326.45;1692098;83;21072;-58
2022/03/04 01:42:22;;;;;;;18.62;10.85;;;;;;;0.89;100.00;104160.97;1693021;84;21053;-64
2022/03/04 01:44:49;;;;;;;20.43;11.70;;;;;;;0.90;100.00;101626.90;1692670;84;21115;-58
2022/03/04 01:47:16;;;;;;;18.02;11.35;;;;;;;0.94;100.00;98593.17;1692853;84;21496;-59
2022/03/04 01:49:44;;;;;;;18.70;11.35;;;;;;;0.96;100.00;96739.57;1692488;84;21112;-64
2022/03/04 01:52:11;;;;;;;19.98;11.83;;;;;;;0.97;100.00;95728.73;1678000;84;21048;-58
2022/03/04 01:54:39;;;;;;;20.27;11.85;;;;;;;0.99;100.00;94551.97;1673815;85;21064;-58
2022/03/04 01:57:07;;;;;;;20.57;12.05;;;;;;;1.03;100.00;93039.91;1673690;85;21561;-64
2022/03/04 01:59:34;;;;;;;18.50;11.97;;;;;;;1.06;100.00;91021.87;1673330;85;21632;-65
2022/03/04 02:02:01;;;;;;;20.55;12.73;;;;;;;1.09;100.00;90183.28;1673236;85;21072;-65
2022/03/04 02:04:28;;;;;;;21.87;12.55;;;;;;;1.14;100.00;88675.75;1673735;85;21040;-64
2022/03/04 02:06:55;;;;;;;19.55;12.25;;;;;;;1.19;100.00;86661.98;1673856;85;21088;-64
2022/03/04 02:09:22;;;;;;;20.62;12.53;;;;;;;1.24;100.00;86837.22;1681718;84;21460;-64
2022/03/04 02:11:49;;;;;;;24.65;13.55;;;;;;;1.27;100.00;86000.00;1710773;83;22178;-64
2022/03/04 02:14:16;;;;;;;23.18;13.80;;;;;;;1.30;100.00;86677.99;1716564;83;21021;-64
2022/03/04 02:16:49;;;;;;;23.15;13.58;;;;;;;1.35;100.00;85843.73;1687612;83;22215;-64
2022/03/04 02:19:16;;;;;;;22.50;14.30;;;;;;;1.40;100.00;84672.19;1701711;84;21604;-64
2022/03/04 02:22:03;;;;;;;23.20;13.60;;;;;;;1.46;100.00;84343.75;1686201;85;21040;-64
2022/03/04 02:24:31;;;;;;;21.60;12.63;;;;;;;1.51;100.00;84182.85;1716495;83;22047;-64
2022/03/04 02:27:01;;;;;;;24.20;14.98;;;;;;;1.56;100.00;83012.90;1686703;85;21064;-64
2022/03/04 02:29:28;;;;;;;21.45;13.25;;;;;;;1.61;100.00;84197.66;1705338;83;20982;-64
2022/03/04 02:31:55;;;;;;;21.05;12.90;;;;;;;1.62;100.00;86893.72;1641382;86;21242;-64
2022/03/04 02:34:22;;;;;;;22.70;13.35;;;;;;;1.64;100.00;90773.27;1670163;85;21060;-64
2022/03/04 02:36:50;;;;;;;17.42;11.50;;;;;;;1.63;100.00;96004.32;1670023;84;22339;-64
2022/03/04 02:39:17;;;;;;;20.57;12.43;;;;;;;1.64;100.00;99217.06;1670162;85;21060;-64
2022/03/04 02:41:44;;;;;;;21.42;12.60;;;;;;;1.62;100.00;101582.33;1669908;84;21107;-63
2022/03/04 02:44:12;;;;;;;22.50;12.80;;;;;;;1.63;100.00;101414.91;1669968;85;21098;-64
2022/03/04 02:46:39;;;;;;;22.00;13.13;;;;;;;1.67;100.00;99730.47;1670081;85;21095;-64
2022/03/04 02:49:08;;;;;;;21.00;12.63;;;;;;;1.73;100.00;97034.16;1669745;85;21493;-64
2022/03/04 02:51:35;;;;;;;19.87;12.47;;;;;;;1.80;100.00;95356.27;1675262;82;21031;-65
2022/03/04 02:54:02;;;;;;;20.90;12.82;;;;;;;1.84;100.00;97052.84;1685482;84;21116;-62
2022/03/04 02:56:32;;;;;;;20.30;12.80;;;;;;;1.87;100.00;98241.42;1685965;83;21501;-63
2022/03/04 02:58:59;;;;;;;20.55;12.68;;;;;;;1.88;100.00;101965.36;1685457;83;21411;-64
2022/03/04 03:01:26;;;;;;;19.95;12.25;;;;;;;1.88;100.00;104844.33;1686036;83;21401;-64
2022/03/04 03:03:52;;;;;;;22.60;11.73;;;;;;;1.88;100.00;108743.19;1685777;84;21065;-64
2022/03/04 03:06:21;;;;;;;22.67;12.93;;;;;;;1.85;100.00;114848.44;1650402;85;20955;-64
2022/03/04 03:08:48;;;;;;;23.80;11.97;;;;;;;1.82;100.00;119942.79;1655024;85;21000;-64
2022/03/04 03:11:15;;;;;;;22.07;12.55;;;;;;;1.80;100.00;122661.73;1680592;84;21040;-64
2022/03/04 03:13:42;;;;;;;21.42;13.35;;;;;;;1.76;100.00;126059.83;1698363;84;21534;-64
2022/03/04 03:16:09;;;;;;;22.37;13.43;;;;;;;1.75;100.00;126058.70;1698960;84;21123;-64
2022/03/04 03:18:37;;;;;;;22.37;12.63;;;;;;;1.75;100.00;126228.05;1698774;84;20952;-64
2022/03/04 03:21:05;;;;;;;23.22;13.78;;;;;;;1.75;100.00;126228.05;1698871;84;21071;-64
2022/03/04 03:23:32;;;;;;;22.20;12.90;;;;;;;1.78;100.00;122316.97;1699100;84;21084;-64
2022/03/04 03:25:59;;;;;;;23.70;13.58;;;;;;;1.82;100.00;118583.02;1698938;84;21974;-63
2022/03/04 03:28:26;;;;;;;22.10;13.62;;;;;;;1.85;100.00;118418.09;1699016;84;20936;-63
2022/03/04 03:30:53;;;;;;;24.20;14.50;;;;;;;1.90;100.00;113838.16;1709285;83;21112;-63
2022/03/04 03:33:20;;;;;;;23.60;13.60;;;;;;;1.96;100.00;111303.80;1699795;84;21048;-64
2022/03/04 03:35:47;;;;;;;20.90;13.13;;;;;;;2.00;100.00;110462.83;1699481;84;21120;-64
2022/03/04 03:38:15;;;;;;;22.22;13.43;;;;;;;2.05;100.00;111319.34;1699541;84;21643;-64
2022/03/04 03:40:42;;;;;;;23.77;14.45;;;;;;;2.08;100.00;117443.94;1699222;84;21144;-64
2022/03/04 03:43:09;;;;;;;21.73;12.75;;;;;;;2.05;100.00;130727.75;1699509;84;21506;-64
2022/03/04 03:45:36;;;;;;;22.27;13.75;;;;;;;1.99;100.00;140288.69;1699474;84;20954;-64
2022/03/04 03:48:04;;;;;;;22.25;14.78;;;;;;;1.96;100.00;145702.36;1699185;84;21116;-64
2022/03/04 03:50:32;;;;;;;22.95;13.90;;;;;;;1.95;100.00;143553.73;1699495;84;21531;-63
2022/03/04 03:52:59;;;;;;;24.85;14.10;;;;;;;1.97;100.00;140968.52;1715527;83;21056;-63
2022/03/04 03:55:26;;;;;;;24.43;15.25;;;;;;;1.96;100.00;142290.34;1720340;83;21561;-64
2022/03/04 03:57:53;;;;;;;22.90;14.50;;;;;;;1.96;100.00;145062.23;1720026;83;21137;-64
2022/03/04 04:00:20;;;;;;;24.32;13.58;;;;;;;1.97;100.00;144272.23;1720376;83;21060;-64
2022/03/04 04:02:47;;;;;;;21.80;13.55;;;;;;;1.98;100.00;141484.58;1719994;83;21737;-64
2022/03/04 04:05:15;;;;;;;20.90;13.60;;;;;;;2.01;100.00;141148.31;1720266;83;21040;-65
2022/03/04 04:07:42;;;;;;;24.05;14.35;;;;;;;1.99;100.00;143403.11;1719894;83;21131;-64
2022/03/04 04:10:09;;;;;;;22.17;13.88;;;;;;;2.02;100.00;144317.02;1696252;83;21080;-64
2022/03/04 04:12:36;;;;;;;24.92;13.53;;;;;;;2.05;100.00;140472.08;1690845;84;22109;-64
2022/03/04 04:15:04;;;;;;;21.95;13.90;;;;;;;2.10;100.00;136719.83;1690826;84;21849;-59
2022/03/04 04:17:32;;;;;;;22.02;13.90;;;;;;;2.14;100.00;133310.37;1691288;84;21123;-58
2022/03/04 04:20:00;;;;;;;21.02;13.13;;;;;;;2.20;100.00;130420.42;1691337;84;21143;-65
2022/03/04 04:22:27;;;;;;;20.75;12.50;;;;;;;2.21;100.00;136917.09;1691404;83;21431;-63
2022/03/04 04:24:54;;;;;;;21.95;13.40;;;;;;;2.19;100.00;145633.50;1691049;84;21517;-65
2022/03/04 04:27:21;;;;;;;20.60;13.48;;;;;;;2.18;100.00;148216.06;1691425;84;21561;-63
2022/03/04 04:29:48;;;;;;;22.82;13.78;;;;;;;2.18;100.00;148214.73;1702660;83;21613;-64
2022/03/04 04:32:15;;;;;;;23.83;13.40;;;;;;;2.20;100.00;148221.20;1720385;83;21731;-63
2022/03/04 04:34:42;;;;;;;23.32;13.65;;;;;;;2.20;100.00;148219.89;1720072;83;21545;-64
2022/03/04 04:37:09;;;;;;;20.10;12.60;;;;;;;2.18;100.00;148216.06;1706704;83;21516;-65
2022/03/04 04:39:37;;;;;;;21.90;13.13;;;;;;;2.18;100.00;148216.06;1690872;84;21534;-64
2022/03/04 04:42:05;;;;;;;20.25;13.05;;;;;;;2.19;100.00;148218.62;1690130;84;21600;-65
2022/03/04 04:44:32;;;;;;;23.22;13.25;;;;;;;2.22;100.00;148225.09;1692004;84;21418;-64
2022/03/04 04:47:00;;;;;;;20.97;13.60;;;;;;;2.26;100.00;148236.66;1690703;84;21569;-64
2022/03/04 04:49:27;;;;;;;23.90;13.95;;;;;;;2.31;100.00;148246.97;1690818;84;21017;-65
2022/03/04 04:51:56;;;;;;;21.15;13.38;;;;;;;2.35;100.00;148257.33;1686401;84;21591;-65
2022/03/04 04:54:23;;;;;;;21.45;13.50;;;;;;;2.38;100.00;148266.31;1670898;85;21033;-64
2022/03/04 04:56:50;;;;;;;20.70;13.00;;;;;;;2.39;100.00;148267.63;1671022;85;21045;-64
2022/03/04 04:59:17;;;;;;;23.25;13.98;;;;;;;2.36;100.00;148259.91;1671405;84;21097;-64
2022/03/04 05:01:44;;;;;;;24.52;14.30;;;;;;;2.33;100.00;148252.17;1671153;85;21092;-64
2022/03/04 05:04:11;;;;;;;22.73;13.75;;;;;;;2.31;100.00;148248.28;1671444;84;21160;-64
2022/03/04 05:06:38;;;;;;;24.95;13.28;;;;;;;2.33;100.00;148252.17;1671144;85;21658;-64
2022/03/04 05:09:05;;;;;;;22.60;14.15;;;;;;;2.38;100.00;148265.06;1670746;85;21088;-64
2022/03/04 05:11:32;;;;;;;21.60;13.95;;;;;;;2.41;100.00;148272.78;1671381;84;21069;-64
2022/03/04 05:13:59;;;;;;;23.77;13.38;;;;;;;2.41;100.00;148274.05;1671088;84;21065;-64
2022/03/04 05:16:27;;;;;;;22.35;13.22;;;;;;;2.41;100.00;148272.78;1671666;85;22626;-64
2022/03/04 05:18:54;;;;;;;23.12;13.22;;;;;;;2.40;100.00;148270.20;1670956;85;21609;-59
2022/03/04 05:21:23;;;;;;;20.85;12.98;;;;;;;2.38;100.00;148266.31;1671704;85;21089;-58
2022/03/04 05:24:07;;;;;;;22.27;13.15;;;;;;;2.39;100.00;148267.63;1670332;84;21724;-59
2022/03/04 05:26:37;;;;;;;23.32;13.40;;;;;;;2.41;100.00;148272.78;1670264;84;21443;-58
2022/03/04 05:29:09;;;;;;;21.00;13.10;;;;;;;2.41;100.00;148274.05;1674089;84;21123;-59
2022/03/04 05:31:40;;;;;;;22.55;12.98;;;;;;;2.41;100.00;148272.78;1699734;84;21287;-65
2022/03/04 05:34:07;;;;;;;24.85;13.20;;;;;;;2.42;100.00;148275.36;1699124;84;21041;-64
2022/03/04 05:36:35;;;;;;;23.57;13.58;;;;;;;2.48;100.00;148290.83;1699276;84;21081;-65
2022/03/04 05:39:02;;;;;;;23.40;14.43;;;;;;;2.53;100.00;148303.70;1699698;84;21084;-59
2022/03/04 05:41:29;;;;;;;22.55;12.60;;;;;;;2.56;100.00;148311.48;1698963;84;21448;-65
2022/03/04 05:43:56;;;;;;;21.97;13.03;;;;;;;2.58;100.00;148316.64;1698448;84;21097;-64
2022/03/04 05:46:23;;;;;;;23.12;13.13;;;;;;;2.60;100.00;148319.22;1699012;84;21622;-65
2022/03/04 05:48:51;;;;;;;23.55;13.53;;;;;;;2.62;100.00;148325.64;1698857;84;21117;-65
2022/03/04 05:51:18;;;;;;;23.02;13.38;;;;;;;2.66;100.00;148334.69;1698980;84;22154;-65
2022/03/04 05:53:45;;;;;;;21.85;13.50;;;;;;;2.68;100.00;148341.16;1703089;84;22228;-64
2022/03/04 05:56:12;;;;;;;21.80;13.13;;;;;;;2.72;100.00;148350.16;1726512;83;21027;-65
2022/03/04 05:58:39;;;;;;;22.48;13.35;;;;;;;2.75;100.00;148356.63;1727048;83;21061;-64
2022/03/04 06:01:07;;;;;;;23.22;13.03;;;;;;;2.75;100.00;148357.88;1726530;81;21070;-64
2022/03/04 06:03:35;;;;;;;21.05;13.55;;;;;;;2.76;100.00;148360.45;1726679;81;21535;-58
2022/03/04 06:06:02;;;;;;;24.23;13.62;;;;;;;2.75;100.00;148356.63;1726821;83;21949;-59
2022/03/04 06:08:29;;;;;;;20.60;12.68;;;;;;;2.74;100.00;148354.03;1723369;83;21132;-59
2022/03/04 06:10:57;;;;;;;24.18;13.05;;;;;;;2.77;100.00;148361.77;1700044;82;21138;-58
2022/03/04 06:13:25;;;;;;;23.62;13.03;;;;;;;2.83;100.00;148378.55;1693926;84;21537;-59
2022/03/04 06:15:52;;;;;;;22.48;13.30;;;;;;;2.89;100.00;148392.75;1694624;84;21096;-65
2022/03/04 06:18:19;;;;;;;23.57;13.18;;;;;;;2.94;100.00;148405.64;1694975;84;21514;-65
2022/03/04 06:20:46;;;;;;;21.65;12.82;;;;;;;2.96;100.00;148410.80;1694659;83;21083;-64
2022/03/04 06:23:13;;;;;;;19.90;11.83;;;;;;;2.98;100.00;148414.64;1694652;84;21056;-65
2022/03/04 06:25:40;;;;;;;21.20;13.55;;;;;;;2.98;100.00;148414.64;1694886;84;21075;-65
2022/03/04 06:28:07;;;;;;;21.80;12.43;;;;;;;2.98;100.00;148414.64;1694696;84;21036;-59
2022/03/04 06:30:38;;;;;;;23.67;12.60;;;;;;;3.01;100.00;148422.42;1718130;83;21859;-57
2022/03/04 06:35:53;;;;;;;23.25;12.90;;;;;;;2.98;100.00;148414.64;1726856;83;21098;-58
2022/03/04 06:38:21;;;;;;;22.32;12.37;;;;;;;2.97;100.00;148412.06;1727279;83;21055;-59
2022/03/04 06:40:48;;;;;;;19.80;11.95;;;;;;;2.99;100.00;148417.27;1727270;83;21583;-59
2022/03/04 06:43:16;;;;;;;20.48;11.65;;;;;;;3.01;100.00;148422.42;1726777;83;21197;-59
2022/03/04 06:45:45;;;;;;;20.40;11.60;;;;;;;3.06;100.00;148434.00;1726579;82;21050;-59
2022/03/04 06:48:13;;;;;;;20.88;12.50;;;;;;;3.06;100.00;148435.31;1727069;81;22274;-60
2022/03/04 06:50:41;;;;;;;20.27;12.37;;;;;;;3.05;100.00;148432.73;1727067;83;21151;-65
2022/03/04 06:53:08;;;;;;;20.55;11.65;;;;;;;3.08;100.00;148440.47;1693468;83;21098;-65
2022/03/04 06:55:35;;;;;;;20.23;11.70;;;;;;;3.14;100.00;148455.94;1718640;83;21224;-66
2022/03/04 06:58:02;;;;;;;19.15;11.68;;;;;;;3.21;100.00;148471.47;1718482;82;21087;-64
2022/03/04 07:00:30;;;;;;;19.10;11.12;;;;;;;3.25;100.00;148483.03;1719145;83;20996;-64
2022/03/04 07:02:57;;;;;;;19.10;11.80;;;;;;;3.33;100.00;148502.41;1718290;83;21107;-64
2022/03/04 07:05:25;;;;;;;20.62;11.90;;;;;;;3.40;100.00;148520.45;1718873;83;21051;-66
2022/03/04 07:07:53;;;;;;;20.05;11.80;;;;;;;3.46;100.00;148534.66;1719032;83;21223;-65
2022/03/04 07:10:21;;;;;;;19.82;11.65;;;;;;;3.53;100.00;148551.45;1708585;83;21104;-64
2022/03/04 07:12:49;;;;;;;20.45;12.73;;;;;;;3.58;100.00;148565.66;1661631;86;20989;-64
2022/03/04 07:15:17;;;;;;;20.43;12.20;;;;;;;3.69;100.00;148591.45;1661488;84;21156;-65
2022/03/04 07:17:44;;;;;;;22.05;13.10;;;;;;;3.73;100.00;148603.09;1661943;84;21161;-65
2022/03/04 07:20:11;;;;;;;23.07;13.35;;;;;;;3.75;100.00;148605.66;1661693;86;21577;-65
2022/03/04 07:22:39;;;;;;;27.15;14.15;;;;;;;3.75;100.00;148605.66;1662155;84;21720;-65
2022/03/04 07:25:08;;;;;;;22.37;13.85;;;;;;;3.80;100.00;148618.56;1661434;86;21081;-65
2022/03/04 07:27:36;;;;;;;25.65;14.63;;;;;;;3.90;100.00;148644.41;1662361;84;20978;-64
2022/03/04 07:30:10;;;;;;;21.37;12.82;;;;;;;4.00;100.00;148670.20;1675267;84;21102;-64
2022/03/04 07:32:38;;;;;;;22.45;13.48;;;;;;;4.09;100.00;148690.84;1659990;86;21270;-64
2022/03/04 07:35:10;;;;;;;22.70;13.05;;;;;;;4.14;100.00;148703.80;1688277;84;21096;-66
2022/03/04 07:37:38;;;;;;;20.65;12.03;;;;;;;4.11;100.00;148696.06;1689408;83;21021;-65
2022/03/04 07:40:08;;;;;;;18.85;10.88;;;;;;;4.09;100.00;148690.84;1689177;83;21060;-65
2022/03/04 07:42:35;;;;;;;19.12;11.10;;;;;;;4.09;100.00;148692.16;1689677;84;21024;-64
2022/03/04 07:45:04;;;;;;;18.75;10.60;;;;;;;4.10;98.50;148693.48;1688689;83;21200;-65
2022/03/04 07:47:31;;;;;;;19.77;10.75;;;;;;;4.07;98.95;148687.00;1675851;84;21006;-65
2022/03/04 07:49:58;;;;;;;16.12;8.90;;;;;;;4.07;97.74;148685.69;1690514;83;21333;-65
2022/03/04 07:52:31;;;;;;;15.50;9.20;;;;;;;4.07;97.03;148685.69;1704154;84;21291;-66
2022/03/04 07:55:03;;;;;;;18.70;9.88;;;;;;;4.08;97.07;148688.27;1703780;83;21098;-64
2022/03/04 07:57:31;;;;;;;15.10;8.93;;;;;;;4.11;97.99;148696.06;1704253;83;21516;-65
2022/03/04 07:59:59;;;;;;;15.70;9.73;;;;;;;4.09;95.66;148690.84;1704470;82;21077;-65
2022/03/04 08:02:27;;;;;;;15.30;9.43;;;;;;;4.11;97.13;148697.33;1704954;84;21102;-64
2022/03/04 08:04:55;;;;;;;20.50;10.08;;;;;;;4.21;96.82;148721.86;1704297;83;21073;-65
2022/03/04 08:07:23;;;;;;;15.08;9.40;;;;;;;4.27;96.90;148737.34;1704394;82;21085;-65
2022/03/04 08:09:51;;;;;;;15.08;8.68;;;;;;;4.38;96.84;148764.47;1702747;83;21296;-65
2022/03/04 08:12:22;;;;;;;15.23;8.53;;;;;;;4.48;96.39;148789.02;1679129;84;21501;-65
2022/03/04 08:14:52;;;;;;;15.63;9.20;;;;;;;4.53;95.67;148801.97;1679903;83;21737;-65
2022/03/04 08:17:20;;;;;;;16.45;9.55;;;;;;;4.65;97.17;148831.67;1680126;85;21594;-65
2022/03/04 08:19:47;;;;;;;16.90;9.25;;;;;;;4.78;96.13;148863.97;1660807;84;21113;-65
2022/03/04 08:22:15;;;;;;;16.17;9.50;;;;;;;4.87;95.51;148887.20;1675948;85;21598;-65
2022/03/04 08:24:43;;;;;;;16.50;9.48;;;;;;;4.87;95.51;148887.20;1675582;85;21105;-65
2022/03/04 08:27:11;;;;;;;15.72;9.50;;;;;;;4.91;95.12;148896.27;1675986;84;21309;-64
2022/03/04 08:29:38;;;;;;;15.78;8.95;;;;;;;4.90;92.62;148893.69;1687675;83;21068;-65
2022/03/04 08:32:07;;;;;;;16.70;10.00;;;;;;;4.85;93.20;148882.05;1711677;83;21059;-65
2022/03/04 08:34:37;;;;;;;14.33;9.28;;;;;;;4.86;92.15;148884.63;1712107;83;21519;-65
2022/03/04 08:37:05;;;;;;;14.90;8.70;;;;;;;4.78;90.07;148863.97;1711575;83;21004;-66
2022/03/04 08:39:33;;;;;;;15.78;9.05;;;;;;;4.66;89.70;148832.94;1711890;83;21470;-66
2022/03/04 08:42:02;;;;;;;15.55;9.60;;;;;;;4.58;91.12;148814.88;1712239;83;21092;-66
2022/03/04 08:44:29;;;;;;;13.85;9.33;;;;;;;4.62;92.64;148822.63;1711941;83;21018;-66
2022/03/04 08:46:57;;;;;;;16.95;10.45;;;;;;;4.78;93.47;148863.97;1712187;83;21185;-65
2022/03/04 08:49:25;;;;;;;15.68;9.80;;;;;;;4.93;92.55;148901.44;1712009;83;21104;-66
2022/03/04 08:51:52;;;;;;;16.10;9.75;;;;;;;4.96;91.30;148907.86;1712454;83;21012;-65
2022/03/04 08:54:20;;;;;;;18.30;10.32;;;;;;;4.99;90.76;148915.66;1719983;83;21063;-65
2022/03/04 08:56:50;;;;;;;17.02;10.93;;;;;;;5.07;91.69;148936.31;1724685;83;21059;-66
2022/03/04 08:59:18;;;;;;;15.25;9.63;;;;;;;5.21;91.23;148971.20;1725320;83;21616;-65
2022/03/04 09:01:45;;;;;;;19.12;11.90;;;;;;;5.34;90.28;149003.52;1725387;82;21023;-65
2022/03/04 09:04:14;;;;;;;17.67;11.12;;;;;;;5.45;91.09;149031.97;1724771;83;21044;-59
2022/03/04 09:06:57;;;;;;;18.35;11.20;;;;;;;5.53;89.22;149050.06;1638221;87;21557;-59
2022/03/04 09:09:25;;;;;;;17.98;10.78;;;;;;;5.56;88.45;149059.12;1637143;87;21095;-59
2022/03/04 09:11:54;;;;;;;17.12;10.45;;;;;;;5.57;87.59;149060.39;1629729;88;21266;-59
2022/03/04 09:14:23;;;;;;;16.80;10.72;;;;;;;5.62;87.66;149073.31;1629736;87;21151;-58
2022/03/04 09:16:51;;;;;;;19.73;11.05;;;;;;;5.71;88.02;149096.59;1630033;87;21088;-59
2022/03/04 09:19:21;;;;;;;17.62;11.45;;;;;;;5.82;85.86;149122.44;1630071;87;21603;-59
2022/03/04 09:21:49;;;;;;;14.65;9.38;;;;;;;5.84;85.83;149127.61;1617446;88;21052;-59
2022/03/04 09:24:17;;;;;;;16.35;10.25;;;;;;;5.78;83.54;149112.11;1629987;88;22168;-61
2022/03/04 09:26:45;;;;;;;17.10;11.00;;;;;;;5.70;84.38;149094.02;1629721;87;21097;-59
2022/03/04 09:29:13;;;;;;;18.77;9.40;;;;;;;5.63;84.00;149074.63;1630206;87;21055;-59
2022/03/04 09:31:41;;;;;;;14.05;8.50;;;;;;;5.53;84.86;149050.06;1630658;87;21064;-59
2022/03/04 09:34:09;;;;;;;11.78;7.20;;;;;;;5.43;84.59;149025.48;1630138;87;21072;-60
2022/03/04 09:36:37;;;;;;;13.98;7.67;;;;;;;5.33;82.80;149000.92;1629941;85;21152;-58
2022/03/04 09:39:04;;;;;;;11.45;6.70;;;;;;;5.19;83.34;148966.03;1631653;85;21126;-59
2022/03/04 09:41:32;;;;;;;12.75;7.85;;;;;;;5.19;84.51;148964.72;1635359;85;21088;-59
2022/03/04 09:43:59;;;;;;;12.25;7.53;;;;;;;5.24;85.13;148977.69;1639543;87;21565;-59
2022/03/04 09:46:26;;;;;;;13.38;8.05;;;;;;;5.26;84.85;148982.84;1638900;86;21181;-59
2022/03/04 09:48:53;;;;;;;12.15;8.13;;;;;;;5.29;85.35;148990.59;1632858;86;21165;-60
2022/03/04 09:51:22;;;;;;;13.38;7.05;;;;;;;5.35;85.92;149004.83;1630752;87;21560;-59
2022/03/04 09:53:52;;;;;;;11.53;7.33;;;;;;;5.36;84.91;149008.67;1631168;87;21522;-59
2022/03/04 09:56:20;;;;;;;10.65;6.67;;;;;;;5.36;84.28;149008.67;1631323;87;21063;-59
2022/03/04 09:58:50;;;;;;;12.05;7.10;;;;;;;5.33;83.77;149000.92;1631503;86;21131;-59
2022/03/04 10:01:17;;;;;;;11.40;7.50;;;;;;;5.29;83.25;148990.59;1631751;87;21195;-58
2022/03/04 10:03:50;;;;;;;11.90;6.97;;;;;;;5.26;84.68;148984.13;1631730;87;21148;-58
2022/03/04 10:06:18;;;;;;;10.45;6.45;;;;;;;5.30;84.87;148993.19;1636360;86;21540;-59
2022/03/04 10:08:50;;;;;;;11.05;6.42;;;;;;;5.31;84.02;148995.77;1644076;86;20984;-59
2022/03/04 10:11:36;;;;;;;10.95;6.95;;;;;;;5.21;84.04;148969.94;1670219;85;21098;-59
2022/03/04 10:14:08;;;;;;;11.48;6.62;;;;;;;5.21;84.04;148969.94;1660784;86;21255;-59
2022/03/04 10:16:38;;;;;;;16.65;7.50;;;;;;;5.26;85.57;148982.84;1666744;84;20940;-58
2022/03/04 10:19:14;;;;;;;10.85;6.90;;;;;;;5.40;86.50;149019.00;1666815;86;21071;-59
2022/03/04 10:21:47;;;;;;;17.27;8.70;;;;;;;5.56;86.55;149057.80;1666673;86;21032;-58
2022/03/04 10:24:15;;;;;;;11.08;7.08;;;;;;;5.62;84.37;149073.31;1666830;84;21060;-59
2022/03/04 10:26:42;;;;;;;12.05;7.15;;;;;;;5.61;83.40;149070.72;1667054;86;21892;-59
2022/03/04 10:29:24;;;;;;;10.32;6.90;;;;;;;5.57;82.40;149060.39;1663930;85;22124;-59
2022/03/04 10:32:23;;;;;;;10.85;6.58;;;;;;;5.48;81.80;149038.41;1645517;87;21134;-59
2022/03/04 10:35:00;;;;;;;10.23;6.28;;;;;;;5.42;82.70;149024.22;1645755;87;21300;-60
2022/03/04 10:37:54;;;;;;;9.85;6.10;;;;;;;5.43;81.23;149026.81;1645769;87;21077;-59
2022/03/04 10:40:29;;;;;;;10.90;6.30;;;;;;;5.51;81.26;149044.89;1645919;87;21218;-59
2022/03/04 10:43:04;;;;;;;10.18;6.35;;;;;;;5.49;80.79;149040.98;1645950;87;21050;-59
2022/03/04 10:45:41;;;;;;;10.35;6.75;;;;;;;5.47;81.36;149034.56;1646548;87;21004;-59
2022/03/04 10:48:18;;;;;;;11.30;6.60;;;;;;;5.47;81.71;149034.56;1645768;86;21126;-59
2022/03/04 10:50:48;;;;;;;11.03;6.95;;;;;;;5.47;81.71;149034.56;1645979;87;20979;-59
2022/03/04 10:53:28;;;;;;;8.88;5.90;;;;;;;5.42;81.29;149022.91;1645837;87;21948;-60
2022/03/04 10:55:59;;;;;;;10.25;6.55;;;;;;;5.34;80.89;149002.25;1646076;87;21039;-62
2022/03/04 10:58:37;;;;;;;10.80;6.62;;;;;;;5.33;82.50;148999.66;1646051;87;21501;-58
2022/03/04 11:01:12;;;;;;;11.55;7.20;;;;;;;5.38;83.28;149013.84;1645489;87;21066;-58
2022/03/04 11:03:41;;;;;;;12.47;7.97;;;;;;;5.44;83.88;149028.06;1645783;87;21071;-58
2022/03/04 11:06:10;;;;;;;11.03;7.37;;;;;;;5.51;84.06;149046.16;1640065;86;21855;-59
2022/03/04 11:08:37;;;;;;;10.82;6.97;;;;;;;5.58;84.13;149062.97;1632811;87;21081;-59
2022/03/04 11:11:07;;;;;;;10.28;6.87;;;;;;;5.64;84.84;149078.52;1661397;85;21174;-60
2022/03/04 11:13:37;;;;;;;10.13;6.50;;;;;;;5.77;84.66;149109.52;1630483;86;21683;-60
2022/03/04 11:16:08;;;;;;;8.93;5.90;;;;;;;5.88;84.64;149138.00;1630795;87;21163;-58
2022/03/04 11:18:37;;;;;;;9.10;6.15;;;;;;;5.96;81.82;149157.34;1630877;87;21555;-59
2022/03/04 11:21:06;;;;;;;7.95;5.20;;;;;;;5.97;82.08;149161.25;1630698;87;21040;-59
2022/03/04 11:23:36;;;;;;;9.33;5.80;;;;;;;6.08;81.77;149187.14;1617416;87;21083;-59